Time;durP1;ratioP1;P1;durP2;ratioP2;P2;SDS_P1;SDS_P2;PMS_P1;PMS_P2;Temp;Humidity;BMP_temperature;BMP_pressure;BME280_temperature;BME280_humidity;BME280_pressure;Samples;Min_cycle;Max_cycle;Signal;HPM_P1;HPM_P2
2023/12/06 00:02:05;;;;;;;71.15;33.13;;;1.40;99.90;;;;;;4973127;28;20107;-82
2023/12/06 00:04:32;;;;;;;71.28;32.42;;;1.40;99.90;;;;;;4952755;28;20054;-82
2023/12/06 00:06:59;;;;;;;71.57;33.90;;;1.40;99.90;;;;;;4961862;28;20042;-83
2023/12/06 00:09:26;;;;;;;73.32;32.17;;;1.30;99.90;;;;;;4969100;28;20760;-82
2023/12/06 00:11:53;;;;;;;68.68;33.17;;;1.30;99.90;;;;;;4952573;28;20125;-83
2023/12/06 00:14:20;;;;;;;79.57;35.90;;;1.30;99.90;;;;;;4961392;28;20090;-83
2023/12/06 00:16:47;;;;;;;84.50;35.30;;;1.30;99.90;;;;;;4965988;28;20051;-83
2023/12/06 00:19:14;;;;;;;84.82;37.85;;;1.30;99.90;;;;;;4964382;28;20065;-82
2023/12/06 00:21:41;;;;;;;64.70;33.42;;;1.30;99.90;;;;;;4965125;28;20042;-83
2023/12/06 00:24:08;;;;;;;78.30;33.83;;;1.30;99.90;;;;;;4959403;28;20084;-82
2023/12/06 00:26:35;;;;;;;60.63;31.52;;;1.30;99.90;;;;;;4962765;28;20042;-84
2023/12/06 00:29:13;;;;;;;77.28;35.17;;;1.20;99.90;;;;;;4954681;28;20039;-83
2023/12/06 00:31:39;;;;;;;78.80;34.38;;;1.20;99.90;;;;;;4951917;28;20042;-83
2023/12/06 00:34:06;;;;;;;82.32;34.50;;;1.20;99.90;;;;;;4980701;28;20045;-83
2023/12/06 00:36:33;;;;;;;72.35;32.75;;;1.20;99.90;;;;;;4977051;28;20058;-85
2023/12/06 00:39:01;;;;;;;77.03;32.60;;;1.20;99.90;;;;;;4980188;28;20042;-84
2023/12/06 00:41:27;;;;;;;84.45;33.30;;;1.20;99.90;;;;;;4982041;28;20106;-84
2023/12/06 00:43:55;;;;;;;87.78;34.40;;;1.20;99.90;;;;;;4967706;28;20030;-84
2023/12/06 00:46:24;;;;;;;70.80;33.58;;;1.20;99.90;;;;;;4965403;28;20054;-82
2023/12/06 00:48:52;;;;;;;57.88;30.85;;;1.30;99.90;;;;;;4955106;28;20055;-83
2023/12/06 00:51:19;;;;;;;65.47;30.13;;;1.20;99.90;;;;;;4956952;28;20054;-82
2023/12/06 00:53:46;;;;;;;60.55;30.92;;;1.20;99.90;;;;;;4963847;28;20070;-81
2023/12/06 00:56:13;;;;;;;56.22;29.35;;;1.20;99.90;;;;;;4967813;28;20108;-81
2023/12/06 00:58:44;;;;;;;59.92;28.02;;;1.20;99.90;;;;;;4953275;28;20047;-81
2023/12/06 01:01:12;;;;;;;52.70;27.83;;;1.20;99.90;;;;;;4950583;28;20049;-82
2023/12/06 01:03:41;;;;;;;48.35;24.70;;;1.20;99.90;;;;;;4959746;28;20461;-82
2023/12/06 01:06:08;;;;;;;44.85;25.25;;;1.20;99.90;;;;;;4973030;28;20046;-82
2023/12/06 01:08:35;;;;;;;47.75;25.65;;;1.20;99.90;;;;;;4948416;28;20641;-82
2023/12/06 01:11:02;;;;;;;50.30;25.55;;;1.20;99.90;;;;;;4963214;28;20907;-82
2023/12/06 01:13:29;;;;;;;55.75;27.00;;;1.20;99.90;;;;;;4971103;28;20046;-84
2023/12/06 01:15:56;;;;;;;60.72;27.08;;;1.20;99.90;;;;;;4966314;28;20053;-83
2023/12/06 01:18:23;;;;;;;57.10;27.52;;;1.20;99.90;;;;;;4974510;28;20050;-82
2023/12/06 01:20:50;;;;;;;70.13;29.65;;;1.20;99.90;;;;;;4970027;28;20035;-83
2023/12/06 01:23:17;;;;;;;61.40;28.92;;;1.20;99.90;;;;;;4965905;28;20097;-83
2023/12/06 01:25:43;;;;;;;73.03;30.17;;;1.10;99.90;;;;;;4971519;28;20043;-83
2023/12/06 01:28:10;;;;;;;65.60;28.65;;;1.10;99.90;;;;;;4966769;28;20046;-83
2023/12/06 01:30:39;;;;;;;73.65;31.02;;;1.10;99.90;;;;;;4973037;28;20106;-82
2023/12/06 01:33:06;;;;;;;75.20;32.30;;;1.10;99.90;;;;;;4949066;28;20395;-82
2023/12/06 01:35:33;;;;;;;74.25;30.13;;;1.10;99.90;;;;;;4979374;28;20046;-83
2023/12/06 01:38:00;;;;;;;67.30;29.40;;;1.10;99.90;;;;;;4964624;28;20175;-82
2023/12/06 01:40:27;;;;;;;70.63;29.52;;;1.10;99.90;;;;;;4953458;28;20047;-82
2023/12/06 01:42:54;;;;;;;70.47;31.25;;;1.10;99.90;;;;;;4952572;28;20055;-83
2023/12/06 01:45:20;;;;;;;67.07;28.27;;;1.10;99.90;;;;;;4987303;28;20117;-84
2023/12/06 01:47:49;;;;;;;65.15;29.17;;;1.20;99.90;;;;;;4969166;28;20037;-82
2023/12/06 01:50:16;;;;;;;69.32;28.25;;;1.20;99.90;;;;;;4959379;28;20064;-81
2023/12/06 01:52:43;;;;;;;71.32;29.63;;;1.20;99.90;;;;;;4968956;28;20066;-82
2023/12/06 01:55:13;;;;;;;72.85;26.67;;;1.10;99.90;;;;;;4975833;28;20034;-82
2023/12/06 01:57:41;;;;;;;58.28;25.75;;;1.20;99.90;;;;;;4963559;28;20079;-83
2023/12/06 02:00:09;;;;;;;68.43;28.70;;;1.20;99.90;;;;;;4958945;28;20151;-83
2023/12/06 02:02:39;;;;;;;86.75;29.60;;;1.10;99.90;;;;;;4967088;28;20708;-84
2023/12/06 02:05:06;;;;;;;89.65;31.83;;;1.20;99.90;;;;;;4966412;28;20054;-84
2023/12/06 02:07:35;;;;;;;84.20;31.55;;;1.10;99.90;;;;;;4971606;28;20046;-84
2023/12/06 02:10:02;;;;;;;105.35;34.35;;;1.10;99.90;;;;;;4971755;28;20088;-83
2023/12/06 02:12:29;;;;;;;102.18;34.60;;;1.10;99.90;;;;;;4961258;28;20042;-82
2023/12/06 02:14:59;;;;;;;96.70;36.03;;;1.20;99.90;;;;;;4971934;28;20053;-83
2023/12/06 02:17:27;;;;;;;125.25;37.38;;;1.10;99.90;;;;;;4958896;28;20081;-83
2023/12/06 02:19:54;;;;;;;119.95;39.75;;;1.20;99.90;;;;;;4964079;28;20109;-84
2023/12/06 02:22:23;;;;;;;132.25;40.15;;;1.20;99.90;;;;;;4961178;28;20208;-83
2023/12/06 02:24:53;;;;;;;133.93;38.53;;;1.20;99.90;;;;;;4968742;28;20054;-83
2023/12/06 02:27:21;;;;;;;131.48;40.97;;;1.20;99.90;;;;;;4960220;28;20054;-84
2023/12/06 02:29:50;;;;;;;177.15;42.42;;;1.10;99.90;;;;;;4971085;28;20050;-83
2023/12/06 02:32:17;;;;;;;128.65;39.47;;;1.10;99.90;;;;;;4952364;28;20050;-82
2023/12/06 02:34:46;;;;;;;138.27;38.85;;;1.10;99.90;;;;;;4965536;28;20180;-83
2023/12/06 02:37:17;;;;;;;188.80;45.70;;;1.10;99.90;;;;;;4960680;28;20046;-83
2023/12/06 02:39:45;;;;;;;178.15;43.33;;;1.10;99.90;;;;;;4974994;28;20113;-82
2023/12/06 02:42:13;;;;;;;89.13;30.52;;;1.20;99.90;;;;;;4963881;28;20097;-82
2023/12/06 02:44:40;;;;;;;75.78;29.73;;;1.30;99.90;;;;;;4951799;28;20109;-83
2023/12/06 02:47:07;;;;;;;81.50;30.13;;;1.20;99.90;;;;;;4957158;28;20128;-82
2023/12/06 02:49:34;;;;;;;77.65;30.13;;;1.20;99.90;;;;;;4978049;28;20126;-82
2023/12/06 02:52:02;;;;;;;74.53;31.67;;;1.20;99.90;;;;;;4970456;28;20054;-82
2023/12/06 02:54:29;;;;;;;83.93;32.33;;;1.20;99.90;;;;;;4972921;28;20045;-83
2023/12/06 02:56:55;;;;;;;75.60;31.13;;;1.20;99.90;;;;;;4974586;28;20027;-83
2023/12/06 02:59:22;;;;;;;69.28;30.85;;;1.10;99.90;;;;;;4976626;28;20606;-82
2023/12/06 03:01:49;;;;;;;79.60;31.67;;;1.10;99.90;;;;;;4966996;28;20093;-84
2023/12/06 03:04:17;;;;;;;83.53;31.10;;;1.10;99.90;;;;;;4983609;28;20049;-82
2023/12/06 03:06:44;;;;;;;75.72;33.75;;;1.10;99.90;;;;;;4963638;28;20042;-82
2023/12/06 03:09:10;;;;;;;80.78;33.92;;;1.20;99.90;;;;;;4957274;28;20332;-84
2023/12/06 03:11:37;;;;;;;80.82;33.45;;;1.10;99.90;;;;;;4977982;28;20043;-83
2023/12/06 03:14:05;;;;;;;74.47;33.78;;;1.10;99.90;;;;;;4971002;28;20049;-83
2023/12/06 03:16:32;;;;;;;85.05;34.90;;;1.10;99.90;;;;;;4951386;28;20042;-83
2023/12/06 03:18:59;;;;;;;79.80;34.00;;;1.10;99.90;;;;;;4964551;28;20088;-82
2023/12/06 03:21:26;;;;;;;85.50;32.13;;;1.10;99.90;;;;;;4977663;28;20517;-83
2023/12/06 03:23:54;;;;;;;74.28;32.03;;;1.10;99.90;;;;;;4968811;28;20081;-83
2023/12/06 03:26:21;;;;;;;71.13;31.98;;;1.00;99.90;;;;;;4974305;28;20084;-83
2023/12/06 03:28:48;;;;;;;136.15;36.78;;;1.10;99.90;;;;;;4976231;28;20039;-83
2023/12/06 03:31:15;;;;;;;70.38;30.00;;;1.10;99.90;;;;;;4969794;28;20157;-84
2023/12/06 03:33:42;;;;;;;68.65;29.90;;;1.10;99.90;;;;;;4959546;28;20105;-84
2023/12/06 03:36:10;;;;;;;54.15;26.67;;;1.00;99.90;;;;;;4967480;28;21051;-84
2023/12/06 03:38:37;;;;;;;61.28;28.73;;;1.00;99.90;;;;;;4957881;28;20069;-83
2023/12/06 03:41:04;;;;;;;57.88;27.15;;;1.00;99.90;;;;;;4966755;28;20054;-83
2023/12/06 03:43:31;;;;;;;63.25;27.95;;;1.00;99.90;;;;;;4962636;28;20102;-83
2023/12/06 03:45:58;;;;;;;56.85;25.38;;;1.00;99.90;;;;;;4967796;28;20046;-84
2023/12/06 03:48:25;;;;;;;59.25;26.85;;;1.00;99.90;;;;;;4956523;28;20046;-84
2023/12/06 03:50:52;;;;;;;51.08;25.67;;;1.00;99.90;;;;;;4964498;28;20069;-82
2023/12/06 03:53:19;;;;;;;60.45;27.38;;;1.10;99.90;;;;;;4956575;28;20341;-83
2023/12/06 03:55:46;;;;;;;66.70;27.77;;;1.10;99.90;;;;;;4968340;28;20059;-82
2023/12/06 03:58:13;;;;;;;62.78;26.30;;;1.20;99.90;;;;;;4949933;28;20512;-85
2023/12/06 04:00:40;;;;;;;58.08;25.27;;;1.10;99.90;;;;;;4976504;28;20074;-83
2023/12/06 04:03:07;;;;;;;48.63;23.13;;;1.10;99.90;;;;;;4956957;28;20133;-87
2023/12/06 04:05:34;;;;;;;50.33;23.92;;;1.10;99.90;;;;;;4958475;28;20053;-84
2023/12/06 04:08:02;;;;;;;49.28;24.13;;;1.00;99.90;;;;;;4974886;28;20061;-85
2023/12/06 04:10:29;;;;;;;54.10;25.05;;;1.00;99.90;;;;;;4947379;28;20079;-82
2023/12/06 04:12:55;;;;;;;54.30;27.30;;;1.00;99.90;;;;;;4953082;28;20171;-86
2023/12/06 04:15:22;;;;;;;59.97;27.55;;;0.90;99.90;;;;;;4970560;28;20074;-84
2023/12/06 04:17:50;;;;;;;63.83;27.50;;;1.00;99.90;;;;;;4967726;28;20050;-85
2023/12/06 04:20:17;;;;;;;48.78;23.77;;;1.00;99.90;;;;;;4955664;28;20062;-83
2023/12/06 04:22:44;;;;;;;61.28;27.17;;;1.00;99.90;;;;;;4957328;28;20055;-83
2023/12/06 04:25:14;;;;;;;58.95;26.42;;;1.00;99.90;;;;;;4960902;28;20042;-83
2023/12/06 04:27:41;;;;;;;47.58;22.95;;;1.10;99.90;;;;;;4960717;28;20045;-83
2023/12/06 04:30:13;;;;;;;46.38;20.83;;;1.10;99.90;;;;;;4959173;28;20092;-84
2023/12/06 04:32:41;;;;;;;50.22;21.92;;;1.00;99.90;;;;;;4961181;28;20034;-84
2023/12/06 04:35:09;;;;;;;54.47;22.98;;;1.10;99.90;;;;;;4958654;28;20046;-85
2023/12/06 04:37:36;;;;;;;72.43;27.00;;;1.00;99.90;;;;;;4979011;28;20050;-84
2023/12/06 04:40:04;;;;;;;78.82;30.50;;;1.00;99.90;;;;;;4969436;28;20057;-84
2023/12/06 04:42:32;;;;;;;83.80;32.55;;;1.00;99.90;;;;;;4955563;28;20121;-82
2023/12/06 04:44:59;;;;;;;87.38;36.03;;;0.90;99.90;;;;;;4969407;28;20125;-85
2023/12/06 04:47:25;;;;;;;84.78;33.13;;;0.90;99.90;;;;;;4978245;28;20154;-85
2023/12/06 04:49:52;;;;;;;89.63;33.97;;;0.90;99.90;;;;;;4966509;28;20042;-85
2023/12/06 04:52:19;;;;;;;94.50;33.05;;;0.80;99.90;;;;;;4973558;28;20068;-85
2023/12/06 04:54:46;;;;;;;85.97;33.05;;;0.90;99.90;;;;;;4985268;28;20049;-85
2023/12/06 04:57:14;;;;;;;89.88;33.08;;;0.80;99.90;;;;;;4971333;28;20065;-84
2023/12/06 04:59:41;;;;;;;97.85;35.88;;;0.80;99.90;;;;;;4962562;28;20737;-83
2023/12/06 05:02:09;;;;;;;79.13;34.30;;;0.90;99.90;;;;;;4961078;28;20061;-84
2023/12/06 05:04:36;;;;;;;92.95;35.78;;;0.90;99.90;;;;;;4973607;28;20054;-84
2023/12/06 05:07:03;;;;;;;93.90;35.53;;;0.90;99.90;;;;;;4969917;28;20057;-86
2023/12/06 05:09:30;;;;;;;112.82;38.50;;;0.90;99.90;;;;;;4962741;28;20096;-84
2023/12/06 05:11:57;;;;;;;96.07;37.45;;;0.90;99.90;;;;;;4972153;28;20115;-85
2023/12/06 05:14:23;;;;;;;106.00;38.22;;;1.00;99.90;;;;;;4967561;28;20057;-83
2023/12/06 05:16:51;;;;;;;88.97;34.92;;;1.00;99.90;;;;;;4975082;28;20459;-83
2023/12/06 05:19:18;;;;;;;76.05;33.63;;;1.00;99.90;;;;;;4958340;28;20114;-83
2023/12/06 05:21:45;;;;;;;83.28;33.90;;;0.90;99.90;;;;;;4957270;28;20544;-85
2023/12/06 05:24:12;;;;;;;81.50;30.90;;;0.90;99.90;;;;;;4976301;28;20047;-84
2023/12/06 05:26:39;;;;;;;68.88;32.35;;;0.90;99.90;;;;;;4959412;28;20035;-83
2023/12/06 05:29:05;;;;;;;77.15;32.67;;;0.90;99.90;;;;;;4956460;28;20058;-83
2023/12/06 05:31:32;;;;;;;67.80;31.73;;;0.80;99.90;;;;;;4963490;28;20038;-82
2023/12/06 05:33:59;;;;;;;77.28;33.08;;;0.80;99.90;;;;;;4974899;28;20042;-84
2023/12/06 05:36:27;;;;;;;87.18;35.35;;;0.80;99.90;;;;;;4966113;28;20064;-83
2023/12/06 05:38:54;;;;;;;80.65;35.05;;;0.80;99.90;;;;;;4957987;28;20051;-84
2023/12/06 05:41:23;;;;;;;72.65;30.95;;;0.80;99.90;;;;;;4949371;28;21388;-82
2023/12/06 05:43:50;;;;;;;62.40;29.75;;;0.80;99.90;;;;;;4951652;28;20073;-83
2023/12/06 05:46:18;;;;;;;70.78;30.83;;;0.80;99.90;;;;;;4961828;28;20145;-84
2023/12/06 05:48:45;;;;;;;69.13;30.75;;;0.70;99.90;;;;;;4972556;28;20120;-82
2023/12/06 05:51:12;;;;;;;75.53;31.77;;;0.60;99.90;;;;;;4971101;28;20213;-83
2023/12/06 05:53:40;;;;;;;69.55;30.63;;;0.60;99.90;;;;;;4960765;28;20046;-83
2023/12/06 05:56:09;;;;;;;81.57;32.00;;;0.60;99.90;;;;;;4970459;28;20034;-83
2023/12/06 05:58:37;;;;;;;73.50;31.73;;;0.70;99.90;;;;;;4958695;28;20089;-84
2023/12/06 06:01:04;;;;;;;88.95;35.65;;;0.60;99.90;;;;;;4973320;28;20113;-86
2023/12/06 06:03:31;;;;;;;102.75;37.90;;;0.60;99.90;;;;;;4964902;28;20066;-84
2023/12/06 06:05:58;;;;;;;100.20;39.05;;;0.60;99.90;;;;;;4974339;28;20149;-83
2023/12/06 06:08:25;;;;;;;119.60;42.55;;;0.60;99.90;;;;;;4962768;28;20876;-83
2023/12/06 06:10:52;;;;;;;121.38;44.22;;;0.60;99.90;;;;;;4974476;28;20052;-83
2023/12/06 06:13:19;;;;;;;137.27;46.17;;;0.60;99.90;;;;;;4958984;28;20049;-83
2023/12/06 06:15:46;;;;;;;126.20;42.17;;;0.60;99.90;;;;;;4964231;28;20150;-82
2023/12/06 06:18:13;;;;;;;134.25;48.22;;;0.50;99.90;;;;;;4960660;28;20042;-83
2023/12/06 06:20:40;;;;;;;136.80;45.08;;;0.60;99.90;;;;;;4972344;28;20049;-86
2023/12/06 06:23:07;;;;;;;124.60;46.65;;;0.60;99.90;;;;;;4955300;28;20057;-87
2023/12/06 06:25:34;;;;;;;131.32;47.22;;;0.50;99.90;;;;;;4972509;28;20357;-85
2023/12/06 06:28:01;;;;;;;134.50;49.25;;;0.50;99.90;;;;;;4970114;28;20035;-85
2023/12/06 06:30:28;;;;;;;140.75;46.03;;;0.50;99.90;;;;;;4967798;28;21483;-86
2023/12/06 06:32:55;;;;;;;152.73;47.13;;;0.50;99.90;;;;;;4992112;28;20105;-84
2023/12/06 06:35:23;;;;;;;129.80;48.20;;;0.50;99.90;;;;;;4972137;28;20041;-86
2023/12/06 06:37:50;;;;;;;141.02;48.25;;;0.50;99.90;;;;;;4993599;28;20194;-87
2023/12/06 06:40:17;;;;;;;159.35;55.50;;;0.40;99.90;;;;;;4991182;28;20081;-83
2023/12/06 06:42:45;;;;;;;148.57;53.90;;;0.40;99.90;;;;;;4978486;28;20059;-83
2023/12/06 06:45:12;;;;;;;151.30;52.72;;;0.40;99.90;;;;;;4964879;28;20134;-83
2023/12/06 06:47:39;;;;;;;156.20;53.10;;;0.40;99.90;;;;;;4971918;28;20047;-83
2023/12/06 06:50:06;;;;;;;150.48;55.75;;;0.40;99.90;;;;;;4969787;28;20050;-82
2023/12/06 06:52:34;;;;;;;143.98;54.03;;;0.30;99.90;;;;;;4969902;28;20042;-86
2023/12/06 06:55:01;;;;;;;158.98;63.30;;;0.40;99.90;;;;;;4977992;28;20381;-86
2023/12/06 06:57:29;;;;;;;150.98;55.13;;;0.30;99.90;;;;;;4966932;28;20117;-84
2023/12/06 06:59:56;;;;;;;163.25;62.08;;;0.30;99.90;;;;;;4951903;28;20045;-82
2023/12/06 07:02:23;;;;;;;159.38;62.10;;;0.30;99.90;;;;;;4958507;28;20228;-84
2023/12/06 07:04:53;;;;;;;160.30;61.60;;;0.20;99.90;;;;;;4977148;28;20113;-83
2023/12/06 07:07:19;;;;;;;154.95;59.83;;;0.20;99.90;;;;;;4955798;28;20504;-82
2023/12/06 07:09:47;;;;;;;152.63;60.10;;;0.20;99.90;;;;;;4954455;28;20057;-86
2023/12/06 07:12:14;;;;;;;131.10;56.80;;;0.20;99.90;;;;;;4954776;28;20056;-83
2023/12/06 07:14:41;;;;;;;151.40;60.00;;;0.20;99.90;;;;;;4954537;28;20050;-84
2023/12/06 07:17:08;;;;;;;148.25;59.08;;;0.20;99.90;;;;;;4955702;28;20038;-81
2023/12/06 07:19:35;;;;;;;153.90;57.95;;;0.20;99.90;;;;;;4959560;28;20207;-81
2023/12/06 07:22:02;;;;;;;146.60;59.75;;;0.10;99.90;;;;;;4964713;28;20085;-82
2023/12/06 07:24:32;;;;;;;143.45;54.60;;;0.20;99.90;;;;;;4969959;28;20058;-82
2023/12/06 07:26:59;;;;;;;154.40;57.80;;;0.10;99.90;;;;;;4968237;28;20536;-82
2023/12/06 07:29:25;;;;;;;141.90;55.80;;;0.10;99.90;;;;;;4959924;28;20061;-81
2023/12/06 07:31:52;;;;;;;170.27;57.92;;;0.10;99.90;;;;;;4960448;28;20134;-82
2023/12/06 07:34:19;;;;;;;159.32;61.15;;;0.10;99.90;;;;;;4950956;28;20432;-81
2023/12/06 07:36:53;;;;;;;173.43;61.83;;;0.10;99.90;;;;;;4949932;28;20035;-82
2023/12/06 07:39:20;;;;;;;158.02;57.60;;;0.10;99.90;;;;;;4951290;28;20432;-82
2023/12/06 07:41:47;;;;;;;163.60;56.35;;;0.10;99.90;;;;;;4965670;28;20528;-82
2023/12/06 07:44:15;;;;;;;151.45;56.38;;;0.10;99.90;;;;;;4961548;28;20046;-82
2023/12/06 07:46:42;;;;;;;148.23;55.13;;;0.10;99.90;;;;;;4967568;28;20101;-81
2023/12/06 07:49:09;;;;;;;273.52;67.75;;;0.10;99.90;;;;;;4955594;28;20052;-82
2023/12/06 07:51:36;;;;;;;146.93;54.35;;;0.10;99.90;;;;;;4964117;28;20608;-82
2023/12/06 07:54:03;;;;;;;146.38;53.78;;;0.10;99.90;;;;;;4962185;28;20046;-82
2023/12/06 07:56:30;;;;;;;157.10;56.65;;;0.10;99.90;;;;;;4952128;28;20508;-81
2023/12/06 07:58:57;;;;;;;150.32;52.00;;;0.10;99.90;;;;;;4984104;28;20078;-81
2023/12/06 08:01:27;;;;;;;150.02;53.30;;;0.10;99.90;;;;;;4951390;28;20050;-81
2023/12/06 08:03:54;;;;;;;138.30;51.72;;;0.20;99.90;;;;;;4983231;28;20108;-82
2023/12/06 08:06:21;;;;;;;132.90;50.20;;;0.20;99.90;;;;;;4981574;28;20054;-82
2023/12/06 08:08:50;;;;;;;137.57;51.35;;;0.20;99.90;;;;;;4985866;28;20054;-81
2023/12/06 08:11:17;;;;;;;142.27;52.85;;;0.20;99.90;;;;;;4957921;28;20129;-81
2023/12/06 08:13:44;;;;;;;135.70;53.63;;;0.20;99.90;;;;;;4952910;28;20066;-82
2023/12/06 08:16:11;;;;;;;148.00;56.50;;;0.20;99.90;;;;;;4951477;28;20042;-82
2023/12/06 08:18:38;;;;;;;142.45;53.15;;;0.30;99.90;;;;;;4966772;28;20165;-82
2023/12/06 08:21:07;;;;;;;135.05;51.65;;;0.30;99.90;;;;;;4980219;28;20058;-82
2023/12/06 08:23:35;;;;;;;147.20;55.25;;;0.30;99.90;;;;;;4948221;28;20098;-82
2023/12/06 08:26:04;;;;;;;144.68;57.97;;;0.30;99.90;;;;;;4953149;28;21035;-81
2023/12/06 08:28:32;;;;;;;134.40;49.80;;;0.30;99.90;;;;;;4964741;28;20232;-82
2023/12/06 08:30:59;;;;;;;140.75;58.00;;;0.30;99.90;;;;;;4971872;28;20061;-81
2023/12/06 08:33:26;;;;;;;137.13;53.90;;;0.30;99.90;;;;;;4945560;28;20053;-81
2023/12/06 08:35:53;;;;;;;138.80;53.38;;;0.30;99.90;;;;;;4981512;28;20086;-79
2023/12/06 08:38:20;;;;;;;124.95;51.00;;;0.30;99.90;;;;;;4969063;28;20046;-80
2023/12/06 08:40:47;;;;;;;124.68;48.28;;;0.40;99.90;;;;;;4946663;28;20043;-80
2023/12/06 08:43:14;;;;;;;128.73;47.97;;;0.30;99.90;;;;;;4952752;28;20464;-75
2023/12/06 08:45:41;;;;;;;123.30;51.72;;;0.30;99.90;;;;;;4957960;28;20922;-76
2023/12/06 08:48:08;;;;;;;137.98;54.72;;;0.30;99.90;;;;;;4955539;28;20046;-80
2023/12/06 08:50:35;;;;;;;131.35;53.47;;;0.40;99.90;;;;;;4955644;28;20134;-76
2023/12/06 08:53:02;;;;;;;121.97;49.53;;;0.40;99.90;;;;;;4955833;28;20053;-77
2023/12/06 08:55:29;;;;;;;138.88;56.13;;;0.50;99.90;;;;;;4951181;28;22375;-76
2023/12/06 08:57:56;;;;;;;126.95;48.40;;;0.50;99.90;;;;;;4972120;28;20046;-77
2023/12/06 09:00:23;;;;;;;124.18;52.72;;;0.50;99.90;;;;;;4954294;28;20042;-75
2023/12/06 09:02:51;;;;;;;107.55;44.38;;;0.50;99.90;;;;;;4956410;28;20082;-76
2023/12/06 09:05:18;;;;;;;136.18;50.08;;;0.50;99.90;;;;;;4939784;28;20046;-76
2023/12/06 09:07:45;;;;;;;129.00;51.47;;;0.60;99.90;;;;;;4951282;28;20098;-75
2023/12/06 09:10:12;;;;;;;126.45;50.88;;;0.50;99.90;;;;;;4952118;28;20046;-75
2023/12/06 09:12:39;;;;;;;126.70;50.88;;;0.60;99.90;;;;;;4952732;28;20554;-76
2023/12/06 09:15:06;;;;;;;133.55;55.38;;;0.60;99.90;;;;;;4942514;28;20109;-75
2023/12/06 09:17:33;;;;;;;122.43;51.53;;;0.60;99.90;;;;;;4939313;28;20501;-76
2023/12/06 09:20:01;;;;;;;111.50;49.67;;;0.70;99.90;;;;;;4950666;28;20046;-76
2023/12/06 09:22:28;;;;;;;119.82;50.35;;;0.70;99.90;;;;;;4954579;28;20670;-75
2023/12/06 09:24:55;;;;;;;125.97;51.78;;;0.70;99.90;;;;;;4945387;28;20133;-75
2023/12/06 09:27:22;;;;;;;131.90;54.90;;;0.70;99.90;;;;;;4955567;28;20715;-76
2023/12/06 09:29:49;;;;;;;176.95;58.38;;;0.80;99.90;;;;;;4959169;28;20086;-77
2023/12/06 09:32:16;;;;;;;134.25;51.13;;;0.80;99.90;;;;;;4960744;28;20089;-75
2023/12/06 09:34:43;;;;;;;150.57;54.83;;;0.80;99.90;;;;;;4944671;28;20046;-75
2023/12/06 09:37:15;;;;;;;138.55;56.67;;;0.80;99.90;;;;;;4958032;28;20046;-76
2023/12/06 09:39:43;;;;;;;117.75;52.53;;;0.80;99.90;;;;;;4957838;28;20879;-76
2023/12/06 09:42:10;;;;;;;151.15;58.22;;;0.70;99.90;;;;;;4949556;28;20054;-77
2023/12/06 17:43:01;;;;;;;162.43;61.85;;;2.20;99.90;;;;;;4953468;28;20389;-74
2023/12/06 17:46:08;;;;;;;142.90;58.08;;;2.30;99.90;;;;;;4922240;28;20955;-74
2023/12/06 17:49:34;;;;;;;145.68;58.90;;;2.30;99.90;;;;;;4959105;28;20038;-75
2023/12/06 17:57:46;;;;;;;141.20;57.05;;;2.30;99.90;;;;;;4898866;29;20085;-76
2023/12/06 18:09:28;;;;;;;138.65;55.90;;;2.30;99.90;;;;;;4897844;29;20139;-75
2023/12/06 18:13:05;;;;;;;144.30;59.65;;;2.40;99.90;;;;;;4866020;29;20110;-75
2023/12/06 18:17:06;;;;;;;;;;;;;;;;;;;;;
2023/12/06 18:24:38;;;;;;;138.88;58.35;;;2.30;99.90;;;;;;4888039;29;20492;-75
2023/12/06 18:27:05;;;;;;;139.02;57.85;;;2.40;99.90;;;;;;4892697;29;20056;-76
2023/12/06 18:29:32;;;;;;;127.72;55.50;;;2.40;99.90;;;;;;4925539;28;20058;-75
2023/12/06 18:31:58;;;;;;;144.90;59.20;;;2.40;99.90;;;;;;4961205;28;20137;-76
2023/12/06 18:34:25;;;;;;;138.35;58.08;;;2.40;99.90;;;;;;4962701;28;20054;-75
2023/12/06 18:36:52;;;;;;;143.20;63.63;;;2.30;99.90;;;;;;4946258;28;20054;-75
2023/12/06 18:39:19;;;;;;;151.10;60.47;;;2.40;99.90;;;;;;4966236;28;20057;-75
2023/12/06 18:41:46;;;;;;;150.27;62.53;;;2.40;99.90;;;;;;4965270;28;20043;-75
2023/12/06 18:44:13;;;;;;;152.23;60.65;;;2.40;99.90;;;;;;4951242;28;20073;-75
2023/12/06 18:46:40;;;;;;;144.07;62.20;;;2.40;99.90;;;;;;4949240;28;20054;-76
2023/12/06 18:49:07;;;;;;;137.05;59.22;;;2.40;99.90;;;;;;4952147;28;20042;-76
2023/12/06 18:51:34;;;;;;;151.82;63.42;;;2.40;99.90;;;;;;4938984;28;20054;-76
2023/12/06 18:54:03;;;;;;;133.02;59.72;;;2.50;99.90;;;;;;4949361;28;20054;-76
2023/12/06 18:56:30;;;;;;;139.93;61.95;;;2.40;99.90;;;;;;4946626;28;20053;-75
2023/12/06 18:58:57;;;;;;;138.30;60.85;;;2.50;99.90;;;;;;4941536;28;20057;-75
2023/12/06 19:01:24;;;;;;;136.63;58.83;;;2.40;99.90;;;;;;4950842;28;20051;-74
2023/12/06 19:03:52;;;;;;;141.95;60.67;;;2.50;99.90;;;;;;4944747;28;20665;-75
2023/12/06 19:06:20;;;;;;;158.63;66.40;;;2.50;99.90;;;;;;4969791;28;20056;-75
2023/12/06 19:08:52;;;;;;;164.88;64.70;;;2.50;99.90;;;;;;4968764;28;20051;-76
2023/12/06 19:11:22;;;;;;;153.07;64.15;;;2.50;99.90;;;;;;4950051;28;20066;-76
2023/12/06 19:13:49;;;;;;;130.27;56.65;;;2.50;99.90;;;;;;4957169;28;20631;-75
2023/12/06 19:16:16;;;;;;;137.35;57.92;;;2.50;99.90;;;;;;4954135;28;20125;-75
2023/12/06 19:18:43;;;;;;;138.65;59.83;;;2.50;99.90;;;;;;4947524;28;20066;-75
2023/12/06 19:21:10;;;;;;;145.02;60.33;;;2.50;99.90;;;;;;4967362;28;20038;-75
2023/12/06 19:23:37;;;;;;;156.00;64.40;;;2.60;99.90;;;;;;4952432;28;20046;-75
2023/12/06 19:26:04;;;;;;;135.32;58.05;;;2.50;99.90;;;;;;4953671;28;20122;-75
2023/12/06 19:28:31;;;;;;;155.65;60.65;;;2.50;99.90;;;;;;4948467;28;20074;-75
2023/12/06 19:30:59;;;;;;;138.82;60.22;;;2.50;99.90;;;;;;4954599;28;20049;-77
2023/12/06 19:33:26;;;;;;;139.02;59.40;;;2.50;99.90;;;;;;4953594;28;20055;-76
2023/12/06 19:35:53;;;;;;;140.35;60.30;;;2.50;99.90;;;;;;4969212;28;20050;-76
2023/12/06 19:38:21;;;;;;;143.18;59.75;;;2.50;99.90;;;;;;4952162;28;20133;-77
2023/12/06 19:40:48;;;;;;;136.10;55.83;;;2.50;99.90;;;;;;4951902;28;20639;-76
2023/12/06 19:43:18;;;;;;;131.98;55.55;;;2.50;99.90;;;;;;4949900;28;20715;-75
2023/12/06 19:45:46;;;;;;;137.85;60.42;;;2.50;99.90;;;;;;4941422;28;20046;-76
2023/12/06 19:48:14;;;;;;;143.73;61.25;;;2.50;99.90;;;;;;4942088;28;20073;-76
2023/12/06 19:50:43;;;;;;;151.77;61.03;;;2.50;99.90;;;;;;4938686;28;20045;-76
2023/12/06 19:53:11;;;;;;;159.30;60.83;;;2.50;99.90;;;;;;4956349;28;20429;-75
2023/12/06 19:55:38;;;;;;;134.00;58.17;;;2.50;99.90;;;;;;4953820;28;20042;-78
2023/12/06 19:58:05;;;;;;;129.15;55.78;;;2.50;99.90;;;;;;4951188;28;20152;-77
2023/12/06 20:00:32;;;;;;;123.65;52.80;;;2.50;99.90;;;;;;4949448;28;20047;-76
2023/12/06 20:02:59;;;;;;;129.63;55.28;;;2.50;99.90;;;;;;4968496;28;20065;-75
2023/12/06 20:05:26;;;;;;;141.35;58.22;;;2.50;99.90;;;;;;4954212;28;20042;-77
2023/12/06 20:07:54;;;;;;;138.73;56.85;;;2.50;99.90;;;;;;4955797;28;20338;-77
2023/12/06 20:10:21;;;;;;;142.52;59.60;;;2.60;99.90;;;;;;4947706;28;20114;-77
2023/12/06 20:12:48;;;;;;;149.20;59.05;;;2.60;99.90;;;;;;4954634;28;20166;-77
2023/12/06 20:15:15;;;;;;;157.88;59.92;;;2.60;99.90;;;;;;4950955;28;20114;-78
2023/12/06 20:17:42;;;;;;;144.75;57.50;;;2.60;99.90;;;;;;4955935;28;20049;-78
2023/12/06 20:20:10;;;;;;;140.68;56.40;;;2.60;99.90;;;;;;4950246;28;20105;-77
2023/12/06 20:22:38;;;;;;;142.57;58.95;;;2.60;99.90;;;;;;4961139;28;20058;-76
2023/12/06 20:25:05;;;;;;;154.77;57.67;;;2.60;99.90;;;;;;4958144;28;20045;-77
2023/12/06 20:27:32;;;;;;;152.52;57.70;;;2.50;99.90;;;;;;4953833;28;20102;-77
2023/12/06 20:29:59;;;;;;;152.15;59.80;;;2.60;99.90;;;;;;4938842;28;20470;-77
2023/12/06 20:32:26;;;;;;;154.82;60.85;;;2.60;99.90;;;;;;4975759;28;20181;-77
2023/12/06 20:34:57;;;;;;;151.65;59.67;;;2.60;99.90;;;;;;4943552;28;20050;-77
2023/12/06 20:37:30;;;;;;;143.40;59.55;;;2.60;99.90;;;;;;4938630;28;20602;-78
2023/12/06 20:39:57;;;;;;;162.73;63.00;;;2.60;99.90;;;;;;4958217;28;20120;-78
2023/12/06 20:42:24;;;;;;;175.70;64.80;;;2.60;99.90;;;;;;4956668;28;20110;-77
2023/12/06 20:44:51;;;;;;;158.88;61.22;;;2.60;99.90;;;;;;4973139;28;20134;-77
2023/12/06 20:47:21;;;;;;;169.30;63.13;;;2.60;99.90;;;;;;4939532;28;20070;-78
2023/12/06 20:49:49;;;;;;;153.05;58.88;;;2.60;99.90;;;;;;4956858;28;20552;-78
2023/12/06 20:52:16;;;;;;;146.77;59.40;;;2.60;99.90;;;;;;4944078;28;20038;-77
2023/12/06 20:54:43;;;;;;;151.05;58.47;;;2.60;99.90;;;;;;4967871;28;20067;-78
2023/12/06 20:57:11;;;;;;;160.98;60.50;;;2.60;99.90;;;;;;4938972;28;20034;-77